Racecast

Assault of Eagle Summit

Decatur HS · 3218m · Girls · JV 2M · 2024-09-07 · TX

Course difficulty: +1.0%i

Race-day weather: 75°F · wind 29 mph · humidity 45%

View full meet →

Team scores

Place Team Points 12345 67
1 Decatur (TX) 23 1 3 4 7 8 9 10
2 Jacksboro (TX) 36 2 5 6 11 12 13 14
3 ILTexas Woodhaven (TX) 85 15 16 17 18 19 20

As scored by the meet.

Results

Rating scale ?
Place Athlete Grade School Time Ratingi Points
1 Ceattle Cooper 7 Victory Christian Academy (TX) 1 13:06.4 PR 133.3
2 Skylar Sicking 8 Decatur (TX) 1 13:36 SR 128.5 1
3 Brooklyn Andrews 8 Trivium Academy (TX) 1 13:46.9 PR 126.8
4 Teagan McClure 8 Azle Christian (TX) 1 13:50.2 PR 126.3
5 Hailey Roberts 7 Jacksboro (TX) 1 13:55.8 PR 125.5 2
6 Jaylene Arredondo 8 Decatur (TX) 2 14:02.1 SR 124.6 3
7 Yahaira Ortiz 8 Decatur (TX) 3 14:06.1 SR 124.0 4
8 Naidelin Delgado 8 Jacksboro (TX) 2 14:08.8 PR 123.6 5
9 Tatum Breger 7 Jacksboro (TX) 3 14:09.8 PR 123.5 6
10 Ashten Childs 7 Decatur (TX) 4 14:29 PR 120.8 7
11 Rylan Kennedy 8 Decatur (TX) 5 14:29.2 SR 120.7 8
12 Ahlani Torres 7 Decatur (TX) 6 14:34.3 PR 120.0 9
13 Emma Ritter 8 Decatur (TX) 7 14:47.4 SR 118.3 10
14 Brynli Kelly 6 Victory Christian Academy (TX) 2 15:04.1 PR 116.1
15 Ainsley McCoy 8 Decatur (TX) 8 15:05.5 SR 115.9
16 Lauren Hammonds 8 Azle Christian (TX) 2 15:08.8 PR 115.5
17 Riley Rogers 7 Decatur (TX) 9 15:12 PR 115.1
18 Charlie Baldi 8 Jacksboro (TX) 4 15:15.6 SR 114.7 11
19 Kinley Wampler 7 Jacksboro (TX) 5 15:15.8 PR 114.7 12
20 Mairlyn Ortega 8 Decatur (TX) 10 15:15.9 PR 114.7
21 Brylin Taylor 7 Decatur (TX) 11 15:19.7 PR 114.2
22 Hilda Romero 7 Jacksboro (TX) 6 15:20 PR 114.1 13
23 Nadia Omuku 6 Trivium Academy (TX) 2 15:33.2 PR 112.6
24 Brynn Benjamin 7 Decatur (TX) 12 15:33.5 PR 112.5
25 Mckinley Cannon 8 Decatur (TX) 13 15:34.6 PR 112.4
26 Avery McCurry 7 Jacksboro (TX) 7 15:38.2 PR 112.0 14
27 Fabiana Holmes 7 Trivium Academy (TX) 3 15:45.8 PR 111.1
28 Miracle Gonzales 8 Decatur (TX) 14 15:55.9 PR 109.9
29 Abby Berkovsky 7 Decatur (TX) 15 16:02.5 PR 109.2
30 Eden Collins 7 Victory Christian Academy (TX) 3 16:12.7 PR 108.0
31 Collynz Sanders 8 Jacksboro (TX) 8 16:17.1 SR 107.5
32 Leah Cortez 7 Decatur (TX) 16 16:17.9 PR 107.5
33 Kendyl Fee 8 Decatur (TX) 17 16:24.2 SR 106.8
34 Ally Morris 7 Jacksboro (TX) 9 16:30.2 PR 106.1
35 Kayla Herrera 8 Jacksboro (TX) 10 16:33.4 SR 105.8
36 Mary Elsie Watson 8 Decatur (TX) 18 16:38.1 PR 105.3
37 Ellie Clackler 8 Decatur (TX) 19 16:40.1 SR 105.1
38 Audrey Rambo 8 Decatur (TX) 20 16:56 SR 103.5
39 Natalie Odean 7 Decatur (TX) 21 16:57.9 PR 103.3
40 Reagan Donaldson 7 Decatur (TX) 22 17:16.6 PR 101.5
41 Lexi Aldape 7 Decatur (TX) 23 17:38.1 PR 99.4
42 Marbella Hernandez 7 Decatur (TX) 24 17:41 PR 99.1
43 Brooklyn Shafer 8 Decatur (TX) 25 17:42.1 PR 99.0
44 Karlyle Hodges 7 Decatur (TX) 26 17:56.3 PR 97.7
45 Nia Garcia 7 Decatur (TX) 27 18:16.9 PR 95.9
46 Keighlynn Straffon 7 Decatur (TX) 28 18:27.8 PR 95.0
47 Riley Miller 7 Decatur (TX) 29 18:29.4 PR 94.9
48 Cadence Owens 7 Decatur (TX) 30 18:29.8 PR 94.8
49 Adilynn Swanton 7 Decatur (TX) 31 18:30 PR 94.8
50 Maritza Aguilar 7 Decatur (TX) 32 18:44 PR 93.6
51 Hailey Harth 8 Decatur (TX) 33 19:20.6 PR 90.7
52 Mia Casillas 8 Decatur (TX) 34 19:34 PR 89.7
53 Julieta Loza 7 Decatur (TX) 35 19:45 PR 88.9
54 Mackenna Gillum 7 Decatur (TX) 36 19:48.2 PR 88.6
55 Hunter LaBrada 8 Decatur (TX) 37 19:49.9 SR 88.5
56 Jamison O'Dell 7 Decatur (TX) 38 19:53.7 PR 88.2
57 Fernanda Enriquez 8 Unattached (TX) 19:55 PR 78.7
58 Hadley Mcgar 7 Decatur (TX) 39 19:59.4 PR 87.8
59 Jaidyn Holmes 7 Decatur (TX) 40 20:24.6 PR 86.0
60 Elizabeth Foreman 7 Decatur (TX) 41 20:28.9 PR 85.7
61 Rose Hilary 8 ILTexas Woodhaven (TX) 1 20:29.2 PR 85.7 15
62 Keisi Tarango 8 ILTexas Woodhaven (TX) 2 20:38.2 PR 85.1 16
63 Morgan Goudy 8 Decatur (TX) 42 20:47.5 SR 84.4
64 Brooklyn Self 7 Decatur (TX) 43 21:39.1 PR 81.1
65 Olivia Knarr 7 Decatur (TX) 44 22:17.3 PR 78.8
66 Dana Lopez 8 ILTexas Woodhaven (TX) 3 23:18.7 PR 75.4 17
67 Paisley Laverty 7 Decatur (TX) 45 23:39.9 PR 74.3
68 Heidi Adams 7 Decatur (TX) 46 23:57.9 PR 73.3
69 Cherish Williams 8 ILTexas Woodhaven (TX) 4 25:13.7 PR 69.7 18
70 Samiya James 8 ILTexas Woodhaven (TX) 5 26:41 PR 65.9 19
71 Reina Rodriguez 8 ILTexas Woodhaven (TX) 6 27:55.4 PR 63.0 20
72 Mylah Gunter 7 Decatur (TX) 47 28:23.1 PR 62.0
Something wrong on this page? Report it →